createdAt,value
2018-04-15T00:00:47.560Z,66.35
2018-04-15T00:03:15.951Z,66.29
2018-04-15T00:05:44.659Z,66.32
2018-04-15T00:08:14.457Z,67.26
2018-04-15T00:10:42.848Z,67.73
2018-04-15T00:13:11.807Z,68.28
2018-04-15T00:15:40.377Z,68.88
2018-04-15T00:18:08.768Z,69.21
2018-04-15T00:20:37.520Z,69.24
2018-04-15T00:23:06.837Z,69.00
2018-04-15T00:25:35.216Z,68.93
2018-04-15T00:28:03.574Z,69.06
2018-04-15T00:30:31.955Z,69.39
2018-04-15T00:33:01.135Z,69.14
2018-04-15T00:35:30.718Z,69.12
2018-04-15T00:37:59.122Z,69.04
2018-04-15T00:40:28.853Z,69.30
2018-04-15T00:42:57.512Z,68.96
2018-04-15T00:45:27.058Z,69.46
2018-04-15T00:47:55.451Z,69.61
2018-04-15T00:50:23.794Z,69.27
2018-04-15T00:52:52.921Z,69.09
2018-04-15T00:55:22.537Z,68.77
2018-04-15T00:57:51.826Z,68.55
2018-04-15T01:00:20.158Z,68.61
2018-04-15T01:02:49.522Z,68.42
2018-04-15T01:05:18.603Z,69.20
2018-04-15T01:07:48.352Z,68.48
2018-04-15T01:10:18.404Z,67.77
2018-04-15T01:12:47.698Z,67.82
2018-04-15T01:15:16.555Z,67.76
2018-04-15T01:17:44.937Z,67.26
2018-04-15T01:20:13.390Z,67.86
2018-04-15T01:22:42.290Z,67.12
2018-04-15T01:25:11.695Z,66.98
2018-04-15T01:27:41.814Z,66.64
2018-04-15T01:30:11.002Z,66.92
2018-04-15T01:32:40.250Z,67.33
2018-04-15T01:35:08.601Z,67.47
2018-04-15T01:37:37.912Z,67.68
2018-04-15T01:40:07.433Z,67.92
2018-04-15T01:42:36.528Z,67.95
2018-04-15T01:45:04.939Z,67.78
2018-04-15T01:47:34.307Z,67.39
2018-04-15T01:50:03.314Z,68.44
2018-04-15T01:52:32.645Z,68.59
2018-04-15T01:55:01.040Z,68.50
2018-04-15T01:57:30.223Z,68.73
2018-04-15T01:59:58.561Z,68.90
2018-04-15T02:02:27.184Z,69.71
2018-04-15T02:04:56.150Z,69.70
2018-04-15T02:07:25.379Z,70.61
2018-04-15T02:09:53.782Z,71.39
2018-04-15T02:12:22.132Z,71.63
2018-04-15T02:14:50.718Z,71.62
2018-04-15T02:17:19.056Z,71.99
2018-04-15T02:19:49.315Z,71.80
2018-04-15T02:22:18.708Z,72.15
2018-04-15T02:24:48.077Z,72.64
2018-04-15T02:27:17.306Z,71.90
2018-04-15T02:29:46.573Z,72.12
2018-04-15T02:32:14.895Z,72.57
2018-04-15T02:34:44.012Z,72.54
2018-04-15T02:37:13.368Z,72.74
2018-04-15T02:39:41.772Z,73.34
2018-04-15T02:42:11.845Z,73.96
2018-04-15T02:44:41.316Z,73.97
2018-04-15T02:47:12.129Z,74.35
2018-04-15T02:49:42.123Z,74.57
2018-04-15T02:52:10.451Z,74.70
2018-04-15T02:54:39.796Z,74.71
2018-04-15T02:57:08.342Z,75.12
2018-04-15T02:59:37.923Z,74.92
2018-04-15T03:02:06.319Z,74.39
2018-04-15T03:04:34.701Z,74.59
2018-04-15T03:07:03.842Z,74.10
2018-04-15T03:09:32.497Z,73.93
2018-04-15T03:12:01.100Z,73.63
2018-04-15T03:14:29.506Z,73.96
2018-04-15T03:16:59.762Z,73.30
2018-04-15T03:19:28.843Z,73.17
2018-04-15T03:21:58.713Z,73.44
2018-04-15T03:24:27.450Z,73.74
2018-04-15T03:26:56.516Z,73.55
2018-04-15T03:29:25.680Z,73.66
2018-04-15T03:31:54.317Z,74.19
2018-04-15T03:34:23.407Z,74.51
2018-04-15T03:36:53.535Z,76.26
2018-04-15T03:39:22.965Z,76.41
2018-04-15T03:41:51.538Z,77.92
2018-04-15T03:44:21.669Z,79.37
2018-04-15T03:46:51.158Z,80.00
2018-04-15T03:49:19.795Z,80.88
2018-04-15T03:51:48.610Z,80.89
2018-04-15T03:54:17.625Z,80.31
2018-04-15T03:56:46.805Z,80.56
2018-04-15T03:59:15.433Z,80.69
2018-04-15T04:01:44.959Z,81.36
2018-04-15T04:04:13.323Z,80.54
2018-04-15T04:06:44.073Z,79.53
2018-04-15T04:09:12.431Z,78.92
2018-04-15T04:11:41.453Z,78.74
2018-04-15T04:14:09.812Z,78.54
2018-04-15T04:16:38.429Z,78.74
2018-04-15T04:19:18.985Z,78.84
2018-04-15T04:21:59.144Z,79.12
2018-04-15T04:24:40.226Z,80.04
2018-04-15T04:27:09.410Z,79.73
2018-04-15T04:29:39.553Z,79.82
2018-04-15T04:32:08.936Z,79.93
2018-04-15T04:34:37.287Z,79.39
2018-04-15T04:37:07.370Z,79.25
2018-04-15T04:39:36.205Z,78.93
2018-04-15T04:42:05.228Z,78.81
2018-04-15T04:44:33.621Z,78.78
2018-04-15T04:47:03.616Z,78.87
2018-04-15T04:49:31.997Z,79.06
2018-04-15T04:52:00.746Z,79.46
2018-04-15T04:54:29.073Z,79.59
2018-04-15T04:56:57.668Z,79.48
2018-04-15T04:59:26.031Z,79.26
2018-04-15T05:01:56.684Z,79.35
2018-04-15T05:04:26.696Z,78.92
2018-04-15T05:06:55.067Z,78.80
2018-04-15T05:09:24.238Z,79.29
2018-04-15T05:11:53.042Z,79.31
2018-04-15T05:14:22.902Z,79.82
2018-04-15T05:16:53.338Z,80.14
2018-04-15T05:19:22.379Z,80.60
2018-04-15T05:21:54.223Z,80.86
2018-04-15T05:24:23.390Z,81.10
2018-04-15T05:26:52.137Z,81.52
2018-04-15T05:29:21.619Z,81.83
2018-04-15T05:31:50.336Z,81.97
2018-04-15T05:34:20.213Z,82.33
2018-04-15T05:36:50.112Z,82.43
2018-04-15T05:39:20.373Z,82.92
2018-04-15T05:41:48.746Z,83.05
2018-04-15T05:44:17.553Z,83.35
2018-04-15T05:46:47.549Z,83.67
2018-04-15T05:49:16.917Z,84.16
2018-04-15T05:51:47.112Z,84.28
2018-04-15T05:54:16.783Z,84.44
2018-04-15T05:56:45.924Z,84.54
2018-04-15T05:59:14.268Z,84.42
2018-04-15T06:01:42.678Z,84.62
2018-04-15T06:04:10.999Z,85.06
2018-04-15T06:06:39.406Z,84.85
2018-04-15T06:09:08.381Z,84.79
2018-04-15T06:11:36.765Z,84.67
2018-04-15T06:14:05.141Z,84.68
2018-04-15T06:16:34.707Z,84.70
2018-04-15T06:19:04.064Z,84.66
2018-04-15T06:21:32.444Z,84.63
2018-04-15T06:24:01.707Z,84.52
2018-04-15T06:26:31.909Z,84.47
2018-04-15T06:29:00.250Z,84.06
2018-04-15T06:31:30.597Z,84.19
2018-04-15T06:33:59.990Z,84.45
2018-04-15T06:36:29.122Z,84.65
2018-04-15T06:38:58.388Z,85.25
2018-04-15T06:41:28.613Z,85.04
2018-04-15T06:43:57.004Z,85.90
2018-04-15T06:46:32.109Z,85.83
2018-04-15T06:49:00.533Z,85.71
2018-04-15T06:51:28.931Z,85.98
2018-04-15T06:53:57.253Z,85.91
2018-04-15T06:56:25.666Z,85.86
2018-04-15T06:58:55.372Z,85.75
2018-04-15T07:01:23.730Z,86.05
2018-04-15T07:03:52.818Z,86.08
2018-04-15T07:06:21.268Z,86.16
2018-04-15T07:08:50.331Z,85.65
2018-04-15T07:11:19.749Z,85.30
2018-04-15T07:13:49.081Z,84.99
2018-04-15T07:16:21.839Z,84.86
2018-04-15T07:18:50.675Z,84.58
2018-04-15T07:21:19.085Z,84.35
2018-04-15T07:23:48.867Z,84.68
2018-04-15T07:26:19.571Z,84.79
2018-04-15T07:28:47.910Z,84.37
2018-04-15T07:31:18.108Z,83.79
2018-04-15T07:33:46.460Z,83.54
2018-04-15T07:36:14.815Z,84.02
2018-04-15T07:38:43.945Z,83.56
2018-04-15T07:41:13.259Z,83.27
2018-04-15T07:43:42.803Z,82.88
2018-04-15T07:46:12.478Z,82.73
2018-04-15T07:48:40.866Z,82.49
2018-04-15T07:51:09.417Z,82.20
2018-04-15T07:53:37.828Z,81.74
2018-04-15T07:56:06.177Z,81.34
2018-04-15T07:58:34.869Z,81.49
2018-04-15T08:01:03.318Z,81.29
2018-04-15T08:03:32.446Z,80.49
2018-04-15T08:06:01.170Z,79.24
2018-04-15T08:08:31.771Z,78.86
2018-04-15T08:11:01.001Z,78.87
2018-04-15T08:13:29.374Z,78.72
2018-04-15T08:15:57.777Z,78.69
2018-04-15T08:18:26.447Z,77.57
2018-04-15T08:20:55.723Z,77.25
2018-04-15T08:23:24.469Z,76.86
2018-04-15T08:25:54.548Z,76.90
2018-04-15T08:28:23.598Z,76.40
2018-04-15T08:30:52.779Z,76.53
2018-04-15T08:33:21.124Z,75.36
2018-04-15T08:35:49.521Z,74.65
2018-04-15T08:38:19.169Z,74.49
2018-04-15T08:40:47.784Z,74.10
2018-04-15T08:43:17.096Z,74.62
2018-04-15T08:45:45.454Z,73.61
2018-04-15T08:48:13.816Z,72.96
2018-04-15T08:50:42.163Z,73.73
2018-04-15T08:53:10.760Z,72.65
2018-04-15T08:55:40.287Z,72.31
2018-04-15T08:58:10.451Z,70.39
2018-04-15T09:00:38.925Z,68.19
2018-04-15T09:03:07.569Z,68.71
2018-04-15T09:05:36.773Z,67.67
2018-04-15T09:08:06.346Z,68.69
2018-04-15T09:10:34.709Z,68.09
2018-04-15T09:13:04.498Z,66.54
2018-04-15T09:15:33.110Z,67.07
2018-04-15T09:18:03.080Z,66.20
2018-04-15T09:20:31.895Z,65.75
2018-04-15T09:23:00.995Z,65.53
2018-04-15T09:25:29.377Z,65.05
2018-04-15T09:27:57.712Z,62.47
2018-04-15T09:30:27.052Z,62.03
2018-04-15T09:32:55.881Z,62.59
2018-04-15T09:35:25.179Z,61.65
2018-04-15T09:37:53.526Z,63.35
2018-04-15T09:40:22.331Z,62.57
2018-04-15T09:42:53.075Z,62.33
2018-04-15T09:45:22.312Z,62.69
2018-04-15T09:47:50.691Z,62.20
2018-04-15T09:50:19.689Z,60.80
2018-04-15T09:52:49.364Z,60.11
2018-04-15T09:55:18.903Z,60.77
2018-04-15T09:57:47.697Z,58.01
2018-04-15T10:00:20.438Z,58.01
2018-04-15T10:02:48.775Z,55.86
2018-04-15T10:05:17.156Z,54.98
2018-04-15T10:07:48.353Z,54.16
2018-04-15T10:10:17.532Z,52.57
2018-04-15T10:12:47.473Z,53.50
2018-04-15T10:15:16.040Z,55.00
2018-04-15T10:17:45.314Z,53.73
2018-04-15T10:20:15.102Z,51.79
2018-04-15T10:22:43.483Z,50.22
2018-04-15T10:25:13.435Z,50.12
2018-04-15T10:27:41.807Z,50.31
2018-04-15T10:30:11.092Z,48.62
2018-04-15T10:32:39.525Z,48.74
2018-04-15T10:35:08.313Z,49.88
2018-04-15T10:37:36.624Z,48.65
2018-04-15T10:40:05.021Z,49.44
2018-04-15T10:42:33.376Z,48.76
2018-04-15T10:45:02.622Z,47.22
2018-04-15T10:47:32.038Z,46.60
2018-04-15T10:50:01.220Z,45.31
2018-04-15T10:52:29.600Z,45.55
2018-04-15T10:54:58.766Z,45.29
2018-04-15T10:57:27.137Z,45.54
2018-04-15T10:59:55.511Z,48.19
2018-04-15T11:02:23.900Z,48.30
2018-04-15T11:04:53.249Z,48.07
2018-04-15T11:07:21.628Z,46.74
2018-04-15T11:09:50.689Z,47.49
2018-04-15T11:12:19.041Z,47.75
2018-04-15T11:14:48.349Z,47.21
2018-04-15T11:17:18.413Z,46.81
2018-04-15T11:19:48.060Z,46.78
2018-04-15T11:22:16.673Z,46.76
2018-04-15T11:24:46.742Z,44.38
2018-04-15T11:27:16.126Z,44.15
2018-04-15T11:29:45.346Z,46.26
2018-04-15T11:32:15.101Z,45.89
2018-04-15T11:34:44.224Z,42.59
2018-04-15T11:37:13.755Z,40.26
2018-04-15T11:39:42.755Z,42.18
2018-04-15T11:42:11.128Z,42.48
2018-04-15T11:44:39.506Z,43.58
2018-04-15T11:47:08.133Z,41.88
2018-04-15T11:49:39.282Z,44.01
2018-04-15T11:52:07.728Z,41.81
2018-04-15T11:54:36.114Z,45.86
2018-04-15T11:57:05.584Z,43.44
2018-04-15T11:59:35.036Z,42.96
2018-04-15T12:02:03.394Z,41.27
2018-04-15T12:04:32.530Z,39.72
2018-04-15T12:07:01.698Z,40.20
2018-04-15T12:09:31.234Z,39.71
2018-04-15T12:11:59.623Z,40.30
2018-04-15T12:14:29.023Z,42.06
2018-04-15T12:16:57.379Z,43.90
2018-04-15T12:19:25.780Z,41.68
2018-04-15T12:21:55.280Z,42.08
2018-04-15T12:24:24.404Z,41.53
2018-04-15T12:26:53.702Z,41.25
2018-04-15T12:29:22.802Z,41.43
2018-04-15T12:31:52.757Z,40.97
2018-04-15T12:34:21.513Z,40.99
2018-04-15T12:36:50.725Z,40.91
2018-04-15T12:39:20.087Z,40.66
2018-04-15T12:41:49.550Z,41.60
2018-04-15T12:44:17.961Z,42.75
2018-04-15T12:46:46.367Z,42.68
2018-04-15T12:49:15.543Z,43.61
2018-04-15T12:51:43.929Z,42.79
2018-04-15T12:54:12.272Z,41.70
2018-04-15T12:56:41.168Z,40.52
2018-04-15T12:59:12.061Z,39.61
2018-04-15T13:01:41.692Z,41.03
2018-04-15T13:04:10.870Z,40.03
2018-04-15T13:06:39.639Z,40.29
2018-04-15T13:09:07.993Z,39.45
2018-04-15T13:11:37.260Z,39.49
2018-04-15T13:14:05.599Z,40.94
2018-04-15T13:16:33.984Z,41.40
2018-04-15T13:19:02.318Z,41.23
2018-04-15T13:21:31.828Z,40.22
2018-04-15T13:24:01.272Z,40.53
2018-04-15T13:26:30.150Z,40.90
2018-04-15T13:28:58.729Z,40.36
2018-04-15T13:31:27.938Z,41.92
2018-04-15T13:33:57.131Z,39.93
2018-04-15T13:36:26.616Z,40.78
2018-04-15T13:38:55.017Z,41.45
2018-04-15T13:41:23.378Z,39.57
2018-04-15T13:43:52.402Z,39.95
2018-04-15T13:46:22.221Z,40.46
2018-04-15T13:48:50.577Z,38.25
2018-04-15T13:51:21.312Z,37.79
2018-04-15T13:53:50.409Z,36.61
2018-04-15T13:56:19.209Z,36.45
2018-04-15T13:58:48.669Z,36.47
2018-04-15T14:01:17.991Z,38.19
2018-04-15T14:03:47.638Z,38.92
2018-04-15T14:06:18.786Z,39.02
2018-04-15T14:08:47.391Z,38.47
2018-04-15T14:11:17.327Z,37.95
2018-04-15T14:13:46.542Z,37.43
2018-04-15T14:16:15.079Z,37.36
2018-04-15T14:18:47.516Z,37.07
2018-04-15T14:21:16.025Z,37.77
2018-04-15T14:23:44.423Z,38.17
2018-04-15T14:26:12.749Z,38.59
2018-04-15T14:28:41.842Z,37.82
2018-04-15T14:31:10.205Z,37.27
2018-04-15T14:33:38.900Z,36.53
2018-04-15T14:36:07.507Z,36.63
2018-04-15T14:38:37.494Z,37.00
2018-04-15T14:41:05.830Z,35.93
2018-04-15T14:43:34.238Z,36.60
2018-04-15T14:46:02.609Z,35.47
2018-04-15T14:48:30.965Z,37.91
2018-04-15T14:51:00.042Z,37.03
2018-04-15T14:53:29.352Z,36.32
2018-04-15T14:55:57.965Z,35.52
2018-04-15T14:58:29.319Z,35.85
2018-04-15T15:00:59.677Z,35.61
2018-04-15T15:03:29.743Z,36.08
2018-04-15T15:05:59.697Z,36.22
2018-04-15T15:08:29.378Z,35.96
2018-04-15T15:10:58.026Z,36.12
2018-04-15T15:13:28.797Z,36.22
2018-04-15T15:15:58.744Z,36.66
2018-04-15T15:18:27.877Z,37.47
2018-04-15T15:21:00.324Z,35.76
2018-04-15T15:23:30.693Z,34.91
2018-04-15T15:26:03.757Z,34.74
2018-04-15T15:28:34.245Z,34.77
2018-04-15T15:31:04.378Z,37.95
2018-04-15T15:33:32.794Z,37.30
2018-04-15T15:36:01.127Z,37.62
2018-04-15T15:38:32.241Z,37.58
2018-04-15T15:41:01.594Z,37.61
2018-04-15T15:43:31.099Z,34.66
2018-04-15T15:46:01.472Z,34.61
2018-04-15T15:48:30.775Z,35.79
2018-04-15T15:50:59.362Z,34.77
2018-04-15T15:53:28.762Z,34.48
2018-04-15T15:55:58.955Z,34.91
2018-04-15T15:58:28.102Z,35.92
2018-04-15T16:00:57.249Z,35.19
2018-04-15T16:03:25.949Z,34.09
2018-04-15T16:05:55.732Z,33.91
2018-04-15T16:08:25.054Z,33.76
2018-04-15T16:10:53.829Z,36.11
2018-04-15T16:13:22.268Z,35.62
2018-04-15T16:15:52.242Z,34.87
2018-04-15T16:18:20.943Z,35.68
2018-04-15T16:20:50.075Z,37.54
2018-04-15T16:23:19.561Z,37.40
2018-04-15T16:25:47.887Z,37.45
2018-04-15T16:28:16.796Z,38.17
2018-04-15T16:30:47.059Z,37.12
2018-04-15T16:33:15.407Z,38.43
2018-04-15T16:35:45.484Z,37.96
2018-04-15T16:38:15.073Z,37.80
2018-04-15T16:40:45.220Z,39.70
2018-04-15T16:43:13.860Z,37.89
2018-04-15T16:45:45.132Z,40.31
2018-04-15T16:48:14.337Z,41.49
2018-04-15T16:50:43.557Z,41.01
2018-04-15T16:53:12.810Z,41.14
2018-04-15T16:55:42.465Z,41.01
2018-04-15T16:58:11.900Z,41.49
2018-04-15T17:00:40.252Z,41.48
2018-04-15T17:03:09.522Z,40.75
2018-04-15T17:05:39.588Z,41.81
2018-04-15T17:08:08.316Z,42.57
2018-04-15T17:10:38.017Z,43.20
2018-04-15T17:13:07.608Z,42.93
2018-04-15T17:15:36.426Z,43.35
2018-04-15T17:18:05.959Z,43.73
2018-04-15T17:20:35.205Z,42.79
2018-04-15T17:23:03.734Z,43.07
2018-04-15T17:25:32.103Z,44.04
2018-04-15T17:28:07.966Z,45.36
2018-04-15T17:30:40.972Z,45.40
2018-04-15T17:33:10.162Z,43.34
2018-04-15T17:35:40.523Z,43.70
2018-04-15T17:38:09.665Z,43.10
2018-04-15T17:40:39.267Z,42.89
2018-04-15T17:43:08.137Z,42.13
2018-04-15T17:45:37.909Z,43.67
2018-04-15T17:48:07.598Z,44.63
2018-04-15T17:50:36.581Z,44.23
2018-04-15T17:53:06.904Z,44.40
2018-04-15T17:55:36.300Z,45.76
2018-04-15T17:58:05.402Z,46.26
2018-04-15T18:00:33.783Z,46.40
2018-04-15T18:03:02.264Z,46.22
2018-04-15T18:05:32.279Z,46.42
2018-04-15T18:08:01.554Z,47.06
2018-04-15T18:10:29.887Z,47.87
2018-04-15T18:12:58.986Z,48.76
2018-04-15T18:15:29.802Z,49.39
2018-04-15T18:17:58.916Z,49.50
2018-04-15T18:20:27.305Z,49.33
2018-04-15T18:22:56.007Z,49.31
2018-04-15T18:25:26.457Z,49.29
2018-04-15T18:27:54.872Z,49.54
2018-04-15T18:30:24.088Z,49.97
2018-04-15T18:32:54.175Z,49.92
2018-04-15T18:35:24.719Z,49.32
2018-04-15T18:37:54.596Z,49.63
2018-04-15T18:40:24.398Z,50.09
2018-04-15T18:42:53.534Z,48.44
2018-04-15T18:45:22.689Z,48.43
2018-04-15T18:47:51.522Z,48.51
2018-04-15T18:50:20.048Z,48.49
2018-04-15T18:52:49.133Z,47.64
2018-04-15T18:55:18.127Z,48.13
2018-04-15T18:57:46.624Z,49.84
2018-04-15T19:00:16.264Z,49.63
2018-04-15T19:02:44.965Z,51.00
2018-04-15T19:05:13.405Z,51.64
2018-04-15T19:07:43.348Z,52.50
2018-04-15T19:10:12.434Z,52.20
2018-04-15T19:12:42.101Z,50.90
2018-04-15T19:15:10.510Z,50.91
2018-04-15T19:17:39.703Z,51.10
2018-04-15T19:20:08.944Z,51.97
2018-04-15T19:22:37.686Z,52.44
2018-04-15T19:25:06.823Z,52.26
2018-04-15T19:27:35.372Z,52.78
2018-04-15T19:30:04.571Z,53.39
2018-04-15T19:32:33.661Z,54.71
2018-04-15T19:35:02.889Z,54.83
2018-04-15T19:37:32.743Z,55.04
2018-04-15T19:40:01.197Z,55.65
2018-04-15T19:42:29.622Z,56.29
2018-04-15T19:45:00.254Z,56.57
2018-04-15T19:47:29.079Z,56.71
2018-04-15T19:49:58.067Z,56.90
2018-04-15T19:52:27.602Z,56.34
2018-04-15T19:54:57.624Z,57.26
2018-04-15T19:57:26.641Z,57.92
2018-04-15T19:59:55.048Z,57.33
2018-04-15T20:02:23.618Z,57.34
2018-04-15T20:04:51.990Z,57.28
2018-04-15T20:07:21.275Z,57.92
2018-04-15T20:10:01.363Z,56.06
2018-04-15T20:12:30.625Z,55.66
2018-04-15T20:14:59.896Z,56.10
2018-04-15T20:17:30.024Z,56.34
2018-04-15T20:19:59.120Z,57.70
2018-04-15T20:22:29.228Z,58.17
2018-04-15T20:25:01.300Z,59.30
2018-04-15T20:27:30.136Z,60.74
2018-04-15T20:29:58.896Z,61.07
2018-04-15T20:32:29.292Z,61.33
2018-04-15T20:34:58.343Z,62.25
2018-04-15T20:37:26.864Z,62.48
2018-04-15T20:39:55.195Z,63.12
2018-04-15T20:42:23.554Z,62.80
2018-04-15T20:44:53.135Z,63.04
2018-04-15T20:47:22.387Z,61.72
2018-04-15T20:49:53.231Z,61.45
2018-04-15T20:52:21.635Z,61.06
2018-04-15T20:54:51.397Z,60.72
2018-04-15T20:57:19.751Z,59.89
2018-04-15T20:59:50.415Z,59.38
2018-04-15T21:02:19.820Z,57.26
2018-04-15T21:04:48.377Z,57.61
2018-04-15T21:07:17.660Z,58.93
2018-04-15T21:09:46.281Z,60.53
2018-04-15T21:12:14.950Z,61.22
2018-04-15T21:14:44.031Z,60.35
2018-04-15T21:17:13.266Z,59.70
2018-04-15T21:19:43.319Z,57.99
2018-04-15T21:22:11.699Z,58.75
2018-04-15T21:24:41.913Z,62.04
2018-04-15T21:27:11.489Z,63.91
2018-04-15T21:29:39.872Z,65.16
2018-04-15T21:32:09.083Z,65.95
2018-04-15T21:34:37.807Z,65.98
2018-04-15T21:37:06.897Z,67.39
2018-04-15T21:39:35.327Z,67.65
2018-04-15T21:42:04.421Z,68.71
2018-04-15T21:44:33.490Z,68.87
2018-04-15T21:47:02.388Z,68.70
2018-04-15T21:49:30.770Z,69.78
2018-04-15T21:52:00.444Z,69.79
2018-04-15T21:54:29.089Z,69.83
2018-04-15T21:57:01.441Z,70.47
2018-04-15T21:59:30.725Z,71.18
2018-04-15T22:01:59.876Z,71.15
2018-04-15T22:04:28.564Z,71.25
2018-04-15T22:06:57.939Z,72.27
2018-04-15T22:09:26.336Z,73.42
2018-04-15T22:12:08.254Z,73.92
2018-04-15T22:14:39.228Z,73.66
2018-04-15T22:17:08.169Z,73.19
2018-04-15T22:19:37.609Z,73.21
2018-04-15T22:22:06.849Z,73.54
2018-04-15T22:24:36.484Z,75.20
2018-04-15T22:27:06.523Z,75.65
2018-04-15T22:29:38.767Z,76.71
2018-04-15T22:32:08.595Z,76.48
2018-04-15T22:34:36.947Z,76.40
2018-04-15T22:37:07.345Z,76.54
2018-04-15T22:39:36.136Z,75.69
2018-04-15T22:42:05.950Z,77.90
2018-04-15T22:44:36.663Z,79.89
2018-04-15T22:47:05.194Z,80.34
2018-04-15T22:49:34.232Z,78.87
2018-04-15T22:52:03.527Z,79.21
2018-04-15T22:54:32.841Z,78.54
2018-04-15T22:57:07.899Z,78.30
2018-04-15T22:59:37.122Z,77.60
2018-04-15T23:02:06.944Z,77.19
2018-04-15T23:04:35.778Z,77.77
2018-04-15T23:07:04.944Z,78.18
2018-04-15T23:09:33.421Z,78.71
2018-04-15T23:12:02.784Z,77.98
2018-04-15T23:14:31.160Z,78.43
2018-04-15T23:17:00.433Z,79.36
2018-04-15T23:19:28.798Z,79.24
2018-04-15T23:21:58.562Z,78.91
2018-04-15T23:24:27.181Z,78.34
2018-04-15T23:26:57.006Z,79.02
2018-04-15T23:29:26.278Z,78.71
2018-04-15T23:31:54.652Z,78.53
2018-04-15T23:34:23.784Z,77.93
2018-04-15T23:36:53.282Z,78.37
2018-04-15T23:39:22.211Z,77.81
2018-04-15T23:41:51.791Z,77.54
2018-04-15T23:44:20.836Z,77.40
2018-04-15T23:46:49.882Z,78.17
2018-04-15T23:49:18.250Z,77.41
2018-04-15T23:51:47.840Z,76.83
2018-04-15T23:54:16.239Z,77.17
2018-04-15T23:56:52.072Z,76.18
2018-04-15T23:59:20.555Z,76.15
